sensor_id;sensor_type;location;lat;lon;timestamp;temperature;humidity
23120;DHT22;11729;50.836;4.330;2023-04-25T00:01:21;10.50;99.90
23120;DHT22;11729;50.836;4.330;2023-04-25T00:03:52;10.40;99.90
23120;DHT22;11729;50.836;4.330;2023-04-25T00:06:18;10.40;99.90
23120;DHT22;11729;50.836;4.330;2023-04-25T00:08:43;10.40;99.90
23120;DHT22;11729;50.836;4.330;2023-04-25T00:11:09;10.60;99.90
23120;DHT22;11729;50.836;4.330;2023-04-25T00:13:39;10.60;99.90
23120;DHT22;11729;50.836;4.330;2023-04-25T00:16:07;10.60;99.90
23120;DHT22;11729;50.836;4.330;2023-04-25T00:18:33;10.70;99.90
23120;DHT22;11729;50.836;4.330;2023-04-25T00:20:58;10.70;99.90
23120;DHT22;11729;50.836;4.330;2023-04-25T00:23:24;10.90;99.90
23120;DHT22;11729;50.836;4.330;2023-04-25T00:25:53;11.00;99.90
23120;DHT22;11729;50.836;4.330;2023-04-25T00:28:19;10.90;99.90
23120;DHT22;11729;50.836;4.330;2023-04-25T00:30:48;10.90;99.90
23120;DHT22;11729;50.836;4.330;2023-04-25T00:33:14;11.00;99.90
23120;DHT22;11729;50.836;4.330;2023-04-25T00:35:39;11.00;99.90
23120;DHT22;11729;50.836;4.330;2023-04-25T00:38:05;10.80;99.90
23120;DHT22;11729;50.836;4.330;2023-04-25T00:40:31;10.80;99.90
23120;DHT22;11729;50.836;4.330;2023-04-25T00:42:56;10.70;99.90
23120;DHT22;11729;50.836;4.330;2023-04-25T00:45:28;10.60;99.90
23120;DHT22;11729;50.836;4.330;2023-04-25T00:47:57;10.40;99.90
23120;DHT22;11729;50.836;4.330;2023-04-25T00:50:23;10.40;99.90
23120;DHT22;11729;50.836;4.330;2023-04-25T00:52:49;10.60;99.90
23120;DHT22;11729;50.836;4.330;2023-04-25T00:55:15;10.50;99.90
23120;DHT22;11729;50.836;4.330;2023-04-25T00:57:42;10.40;99.90
23120;DHT22;11729;50.836;4.330;2023-04-25T01:00:09;10.20;99.90
23120;DHT22;11729;50.836;4.330;2023-04-25T01:02:36;10.30;99.90
23120;DHT22;11729;50.836;4.330;2023-04-25T01:05:03;10.40;99.90
23120;DHT22;11729;50.836;4.330;2023-04-25T01:07:33;10.30;99.90
23120;DHT22;11729;50.836;4.330;2023-04-25T01:10:02;10.30;99.90
23120;DHT22;11729;50.836;4.330;2023-04-25T01:12:29;10.30;99.90
23120;DHT22;11729;50.836;4.330;2023-04-25T01:14:58;10.40;99.90
23120;DHT22;11729;50.836;4.330;2023-04-25T01:17:27;10.30;99.90
23120;DHT22;11729;50.836;4.330;2023-04-25T01:19:53;10.30;99.90
23120;DHT22;11729;50.836;4.330;2023-04-25T01:22:19;10.00;99.90
23120;DHT22;11729;50.836;4.330;2023-04-25T01:24:46;10.00;99.90
23120;DHT22;11729;50.836;4.330;2023-04-25T01:27:12;10.20;99.90
23120;DHT22;11729;50.836;4.330;2023-04-25T01:29:38;10.20;99.90
23120;DHT22;11729;50.836;4.330;2023-04-25T01:32:05;10.30;99.90
23120;DHT22;11729;50.836;4.330;2023-04-25T01:34:31;10.40;99.90
23120;DHT22;11729;50.836;4.330;2023-04-25T01:36:56;10.20;99.90
23120;DHT22;11729;50.836;4.330;2023-04-25T01:39:24;10.20;99.90
23120;DHT22;11729;50.836;4.330;2023-04-25T01:41:50;10.20;99.90
23120;DHT22;11729;50.836;4.330;2023-04-25T01:44:17;10.30;99.90
23120;DHT22;11729;50.836;4.330;2023-04-25T01:46:43;10.30;99.90
23120;DHT22;11729;50.836;4.330;2023-04-25T01:49:08;10.40;99.90
23120;DHT22;11729;50.836;4.330;2023-04-25T01:51:34;10.20;99.90
23120;DHT22;11729;50.836;4.330;2023-04-25T01:54:00;10.10;99.90
23120;DHT22;11729;50.836;4.330;2023-04-25T01:56:31;10.20;99.90
23120;DHT22;11729;50.836;4.330;2023-04-25T01:58:57;10.10;99.90
23120;DHT22;11729;50.836;4.330;2023-04-25T02:01:24;10.10;99.90
23120;DHT22;11729;50.836;4.330;2023-04-25T02:03:49;10.00;99.90
23120;DHT22;11729;50.836;4.330;2023-04-25T02:06:15;10.00;99.90
23120;DHT22;11729;50.836;4.330;2023-04-25T02:08:41;9.80;99.90
23120;DHT22;11729;50.836;4.330;2023-04-25T02:11:06;9.80;99.90
23120;DHT22;11729;50.836;4.330;2023-04-25T02:13:34;9.70;99.90
23120;DHT22;11729;50.836;4.330;2023-04-25T02:16:00;9.80;99.90
23120;DHT22;11729;50.836;4.330;2023-04-25T02:18:25;9.70;99.90
23120;DHT22;11729;50.836;4.330;2023-04-25T02:20:52;9.50;99.90
23120;DHT22;11729;50.836;4.330;2023-04-25T02:23:17;9.40;99.90
23120;DHT22;11729;50.836;4.330;2023-04-25T02:25:44;9.50;99.90
23120;DHT22;11729;50.836;4.330;2023-04-25T02:28:10;9.40;99.90
23120;DHT22;11729;50.836;4.330;2023-04-25T02:30:36;9.50;99.90
23120;DHT22;11729;50.836;4.330;2023-04-25T02:33:02;9.70;99.90
23120;DHT22;11729;50.836;4.330;2023-04-25T02:35:27;9.80;99.90
23120;DHT22;11729;50.836;4.330;2023-04-25T02:37:53;9.70;99.90
23120;DHT22;11729;50.836;4.330;2023-04-25T02:40:19;9.50;99.90
23120;DHT22;11729;50.836;4.330;2023-04-25T02:42:44;9.50;99.90
23120;DHT22;11729;50.836;4.330;2023-04-25T02:45:11;9.50;99.90
23120;DHT22;11729;50.836;4.330;2023-04-25T02:47:37;9.50;99.90
23120;DHT22;11729;50.836;4.330;2023-04-25T02:50:03;9.60;99.90
23120;DHT22;11729;50.836;4.330;2023-04-25T02:52:29;9.70;99.90
23120;DHT22;11729;50.836;4.330;2023-04-25T02:54:54;9.60;99.90
23120;DHT22;11729;50.836;4.330;2023-04-25T02:57:20;9.70;99.90
23120;DHT22;11729;50.836;4.330;2023-04-25T02:59:45;9.80;99.90
23120;DHT22;11729;50.836;4.330;2023-04-25T03:02:11;9.80;99.90
23120;DHT22;11729;50.836;4.330;2023-04-25T03:04:37;9.70;99.90
23120;DHT22;11729;50.836;4.330;2023-04-25T03:07:03;9.80;99.90
23120;DHT22;11729;50.836;4.330;2023-04-25T03:09:29;9.50;99.90
23120;DHT22;11729;50.836;4.330;2023-04-25T03:11:54;9.60;99.90
23120;DHT22;11729;50.836;4.330;2023-04-25T03:14:21;9.70;99.90
23120;DHT22;11729;50.836;4.330;2023-04-25T03:16:46;9.70;99.90
23120;DHT22;11729;50.836;4.330;2023-04-25T03:19:13;9.70;99.90
23120;DHT22;11729;50.836;4.330;2023-04-25T03:21:41;9.80;99.90
23120;DHT22;11729;50.836;4.330;2023-04-25T03:24:07;9.90;99.90
23120;DHT22;11729;50.836;4.330;2023-04-25T03:26:32;9.70;99.90
23120;DHT22;11729;50.836;4.330;2023-04-25T03:29:00;9.60;99.90
23120;DHT22;11729;50.836;4.330;2023-04-25T03:31:26;9.60;99.90
23120;DHT22;11729;50.836;4.330;2023-04-25T03:33:51;9.50;99.90
23120;DHT22;11729;50.836;4.330;2023-04-25T03:36:17;9.60;99.90
23120;DHT22;11729;50.836;4.330;2023-04-25T03:38:42;9.70;99.90
23120;DHT22;11729;50.836;4.330;2023-04-25T03:41:08;9.40;99.90
23120;DHT22;11729;50.836;4.330;2023-04-25T03:43:34;9.40;99.90
23120;DHT22;11729;50.836;4.330;2023-04-25T03:46:00;9.30;99.90
23120;DHT22;11729;50.836;4.330;2023-04-25T03:48:27;9.40;99.90
23120;DHT22;11729;50.836;4.330;2023-04-25T03:50:54;9.40;99.90
23120;DHT22;11729;50.836;4.330;2023-04-25T03:53:20;9.50;99.90
23120;DHT22;11729;50.836;4.330;2023-04-25T03:55:45;9.50;99.90
23120;DHT22;11729;50.836;4.330;2023-04-25T03:58:12;9.60;99.90
23120;DHT22;11729;50.836;4.330;2023-04-25T04:00:38;9.60;99.90
23120;DHT22;11729;50.836;4.330;2023-04-25T04:03:03;9.50;99.90
23120;DHT22;11729;50.836;4.330;2023-04-25T04:05:29;9.30;99.90
23120;DHT22;11729;50.836;4.330;2023-04-25T04:07:55;9.30;99.90
23120;DHT22;11729;50.836;4.330;2023-04-25T04:10:21;9.30;99.90
23120;DHT22;11729;50.836;4.330;2023-04-25T04:12:47;9.30;99.90
23120;DHT22;11729;50.836;4.330;2023-04-25T04:15:13;9.20;99.90
23120;DHT22;11729;50.836;4.330;2023-04-25T04:17:39;9.20;99.90
23120;DHT22;11729;50.836;4.330;2023-04-25T04:20:07;9.20;99.90
23120;DHT22;11729;50.836;4.330;2023-04-25T04:22:34;9.20;99.90
23120;DHT22;11729;50.836;4.330;2023-04-25T04:25:01;9.10;99.90
23120;DHT22;11729;50.836;4.330;2023-04-25T04:27:28;9.20;99.90
23120;DHT22;11729;50.836;4.330;2023-04-25T04:29:54;9.10;99.90
23120;DHT22;11729;50.836;4.330;2023-04-25T04:32:20;9.30;99.90
23120;DHT22;11729;50.836;4.330;2023-04-25T04:34:45;9.30;99.90
23120;DHT22;11729;50.836;4.330;2023-04-25T04:37:12;9.50;99.90
23120;DHT22;11729;50.836;4.330;2023-04-25T04:39:38;9.50;99.90
23120;DHT22;11729;50.836;4.330;2023-04-25T04:42:04;9.50;99.90
23120;DHT22;11729;50.836;4.330;2023-04-25T04:44:30;9.50;99.90
23120;DHT22;11729;50.836;4.330;2023-04-25T04:46:59;9.60;99.90
23120;DHT22;11729;50.836;4.330;2023-04-25T04:49:26;9.80;99.90
23120;DHT22;11729;50.836;4.330;2023-04-25T04:51:52;9.60;99.90
23120;DHT22;11729;50.836;4.330;2023-04-25T04:54:17;9.50;99.90
23120;DHT22;11729;50.836;4.330;2023-04-25T04:56:43;9.40;99.90
23120;DHT22;11729;50.836;4.330;2023-04-25T04:59:09;9.50;99.90
23120;DHT22;11729;50.836;4.330;2023-04-25T05:01:35;9.50;99.90
23120;DHT22;11729;50.836;4.330;2023-04-25T05:04:01;9.70;99.90
23120;DHT22;11729;50.836;4.330;2023-04-25T05:06:29;9.40;99.90
23120;DHT22;11729;50.836;4.330;2023-04-25T05:08:57;9.20;99.90
23120;DHT22;11729;50.836;4.330;2023-04-25T05:11:23;9.10;99.90
23120;DHT22;11729;50.836;4.330;2023-04-25T05:13:52;9.00;99.90
23120;DHT22;11729;50.836;4.330;2023-04-25T05:16:18;9.10;99.90
23120;DHT22;11729;50.836;4.330;2023-04-25T05:18:44;8.80;99.90
23120;DHT22;11729;50.836;4.330;2023-04-25T05:21:11;8.80;99.90
23120;DHT22;11729;50.836;4.330;2023-04-25T05:23:37;8.90;99.90
23120;DHT22;11729;50.836;4.330;2023-04-25T05:26:03;9.20;99.90
23120;DHT22;11729;50.836;4.330;2023-04-25T05:28:28;9.00;99.90
23120;DHT22;11729;50.836;4.330;2023-04-25T05:30:54;9.00;99.90
23120;DHT22;11729;50.836;4.330;2023-04-25T05:33:20;9.00;99.90
23120;DHT22;11729;50.836;4.330;2023-04-25T05:35:46;9.20;99.90
23120;DHT22;11729;50.836;4.330;2023-04-25T05:38:12;9.10;99.90
23120;DHT22;11729;50.836;4.330;2023-04-25T05:40:38;9.10;99.90
23120;DHT22;11729;50.836;4.330;2023-04-25T05:43:03;9.10;99.90
23120;DHT22;11729;50.836;4.330;2023-04-25T05:45:29;9.10;99.90
23120;DHT22;11729;50.836;4.330;2023-04-25T05:47:56;9.10;99.90
23120;DHT22;11729;50.836;4.330;2023-04-25T05:50:21;9.10;99.90
23120;DHT22;11729;50.836;4.330;2023-04-25T05:52:47;9.20;99.90
23120;DHT22;11729;50.836;4.330;2023-04-25T05:55:13;9.30;99.90
23120;DHT22;11729;50.836;4.330;2023-04-25T05:57:39;9.50;99.90
23120;DHT22;11729;50.836;4.330;2023-04-25T06:00:09;9.40;99.90
23120;DHT22;11729;50.836;4.330;2023-04-25T06:02:35;9.70;99.90
23120;DHT22;11729;50.836;4.330;2023-04-25T06:05:01;9.80;99.90
23120;DHT22;11729;50.836;4.330;2023-04-25T06:07:29;9.70;99.90
23120;DHT22;11729;50.836;4.330;2023-04-25T06:09:56;9.90;99.90
23120;DHT22;11729;50.836;4.330;2023-04-25T06:12:22;9.70;99.90
23120;DHT22;11729;50.836;4.330;2023-04-25T06:14:48;9.80;99.90
23120;DHT22;11729;50.836;4.330;2023-04-25T06:17:14;10.10;99.90
23120;DHT22;11729;50.836;4.330;2023-04-25T06:19:39;9.90;99.90
23120;DHT22;11729;50.836;4.330;2023-04-25T06:22:07;10.20;99.90
23120;DHT22;11729;50.836;4.330;2023-04-25T06:24:33;10.10;99.90
23120;DHT22;11729;50.836;4.330;2023-04-25T06:27:00;9.90;99.90
23120;DHT22;11729;50.836;4.330;2023-04-25T06:29:25;10.20;99.90
23120;DHT22;11729;50.836;4.330;2023-04-25T06:31:51;10.00;99.90
23120;DHT22;11729;50.836;4.330;2023-04-25T06:34:17;10.10;99.90
23120;DHT22;11729;50.836;4.330;2023-04-25T06:36:43;10.20;99.90
23120;DHT22;11729;50.836;4.330;2023-04-25T06:39:09;10.40;99.90
23120;DHT22;11729;50.836;4.330;2023-04-25T06:41:35;10.30;99.90
23120;DHT22;11729;50.836;4.330;2023-04-25T06:44:01;10.60;99.90
23120;DHT22;11729;50.836;4.330;2023-04-25T06:46:27;10.90;99.90
23120;DHT22;11729;50.836;4.330;2023-04-25T06:48:52;10.80;99.90
23120;DHT22;11729;50.836;4.330;2023-04-25T06:51:18;10.80;99.90
23120;DHT22;11729;50.836;4.330;2023-04-25T06:53:44;11.00;99.90
23120;DHT22;11729;50.836;4.330;2023-04-25T06:56:09;11.10;99.90
23120;DHT22;11729;50.836;4.330;2023-04-25T06:58:35;11.10;99.90
23120;DHT22;11729;50.836;4.330;2023-04-25T07:01:01;11.00;99.90
23120;DHT22;11729;50.836;4.330;2023-04-25T07:03:26;11.10;99.90
23120;DHT22;11729;50.836;4.330;2023-04-25T07:05:52;10.90;99.90
23120;DHT22;11729;50.836;4.330;2023-04-25T07:08:17;10.80;99.90
23120;DHT22;11729;50.836;4.330;2023-04-25T07:10:43;10.70;99.90
23120;DHT22;11729;50.836;4.330;2023-04-25T07:13:09;10.60;99.90
23120;DHT22;11729;50.836;4.330;2023-04-25T07:15:34;10.50;99.90
23120;DHT22;11729;50.836;4.330;2023-04-25T07:18:00;10.30;99.90
23120;DHT22;11729;50.836;4.330;2023-04-25T07:20:26;10.40;99.90
23120;DHT22;11729;50.836;4.330;2023-04-25T07:22:53;10.40;99.90
23120;DHT22;11729;50.836;4.330;2023-04-25T07:25:19;10.60;99.90
23120;DHT22;11729;50.836;4.330;2023-04-25T07:27:44;10.50;99.90
23120;DHT22;11729;50.836;4.330;2023-04-25T07:30:10;10.40;99.90
23120;DHT22;11729;50.836;4.330;2023-04-25T07:32:36;10.60;99.90
23120;DHT22;11729;50.836;4.330;2023-04-25T07:35:02;10.60;99.90
23120;DHT22;11729;50.836;4.330;2023-04-25T07:37:28;10.70;99.90
23120;DHT22;11729;50.836;4.330;2023-04-25T07:39:54;10.90;99.90
23120;DHT22;11729;50.836;4.330;2023-04-25T07:42:21;11.00;99.90
23120;DHT22;11729;50.836;4.330;2023-04-25T07:44:46;11.40;99.90
23120;DHT22;11729;50.836;4.330;2023-04-25T07:47:12;11.60;99.90
23120;DHT22;11729;50.836;4.330;2023-04-25T07:49:39;11.70;99.90
23120;DHT22;11729;50.836;4.330;2023-04-25T07:52:06;11.70;99.90
23120;DHT22;11729;50.836;4.330;2023-04-25T07:54:32;11.80;99.90
23120;DHT22;11729;50.836;4.330;2023-04-25T07:56:58;11.80;99.90
23120;DHT22;11729;50.836;4.330;2023-04-25T07:59:24;11.40;99.90
23120;DHT22;11729;50.836;4.330;2023-04-25T08:01:50;11.40;99.90
23120;DHT22;11729;50.836;4.330;2023-04-25T08:04:16;11.60;99.90
23120;DHT22;11729;50.836;4.330;2023-04-25T08:06:42;12.00;99.90
23120;DHT22;11729;50.836;4.330;2023-04-25T08:09:09;12.20;99.90
23120;DHT22;11729;50.836;4.330;2023-04-25T08:11:35;12.40;99.90
23120;DHT22;11729;50.836;4.330;2023-04-25T08:14:01;12.20;99.90
23120;DHT22;11729;50.836;4.330;2023-04-25T08:16:27;11.90;99.90
23120;DHT22;11729;50.836;4.330;2023-04-25T08:18:53;12.50;99.90
23120;DHT22;11729;50.836;4.330;2023-04-25T08:21:19;12.70;99.90
23120;DHT22;11729;50.836;4.330;2023-04-25T08:23:44;12.90;99.90
23120;DHT22;11729;50.836;4.330;2023-04-25T08:26:11;13.00;99.90
23120;DHT22;11729;50.836;4.330;2023-04-25T08:28:37;13.20;99.90
23120;DHT22;11729;50.836;4.330;2023-04-25T08:31:03;13.10;99.90
23120;DHT22;11729;50.836;4.330;2023-04-25T08:33:29;13.40;99.90
23120;DHT22;11729;50.836;4.330;2023-04-25T08:35:56;13.60;99.90
23120;DHT22;11729;50.836;4.330;2023-04-25T08:38:22;13.80;99.90
23120;DHT22;11729;50.836;4.330;2023-04-25T08:40:50;14.50;99.90
23120;DHT22;11729;50.836;4.330;2023-04-25T08:43:18;15.70;99.90
23120;DHT22;11729;50.836;4.330;2023-04-25T08:45:44;16.00;99.90
23120;DHT22;11729;50.836;4.330;2023-04-25T08:48:12;16.00;99.90
23120;DHT22;11729;50.836;4.330;2023-04-25T08:50:53;16.00;99.90
23120;DHT22;11729;50.836;4.330;2023-04-25T08:53:25;16.80;99.90
23120;DHT22;11729;50.836;4.330;2023-04-25T08:55:53;18.10;96.20
23120;DHT22;11729;50.836;4.330;2023-04-25T08:58:19;18.90;94.00
23120;DHT22;11729;50.836;4.330;2023-04-25T09:00:46;19.00;92.00
23120;DHT22;11729;50.836;4.330;2023-04-25T09:03:16;18.90;90.20
23120;DHT22;11729;50.836;4.330;2023-04-25T09:05:42;18.30;89.80
23120;DHT22;11729;50.836;4.330;2023-04-25T09:08:08;18.00;90.10
23120;DHT22;11729;50.836;4.330;2023-04-25T09:10:34;17.60;91.50
23120;DHT22;11729;50.836;4.330;2023-04-25T09:15:30;16.20;93.70
23120;DHT22;11729;50.836;4.330;2023-04-25T09:17:56;16.10;92.20
23120;DHT22;11729;50.836;4.330;2023-04-25T09:20:22;15.60;93.00
23120;DHT22;11729;50.836;4.330;2023-04-25T09:22:48;14.80;93.40
23120;DHT22;11729;50.836;4.330;2023-04-25T09:25:13;14.20;95.40
23120;DHT22;11729;50.836;4.330;2023-04-25T09:27:50;13.70;97.90
23120;DHT22;11729;50.836;4.330;2023-04-25T09:30:17;12.80;99.90
23120;DHT22;11729;50.836;4.330;2023-04-25T09:32:43;12.70;99.90
23120;DHT22;11729;50.836;4.330;2023-04-25T09:35:10;12.60;99.90
23120;DHT22;11729;50.836;4.330;2023-04-25T09:37:36;12.80;99.90
23120;DHT22;11729;50.836;4.330;2023-04-25T09:40:06;12.90;99.90
23120;DHT22;11729;50.836;4.330;2023-04-25T09:42:33;12.90;99.90
23120;DHT22;11729;50.836;4.330;2023-04-25T09:45:00;12.90;99.90
23120;DHT22;11729;50.836;4.330;2023-04-25T09:47:29;13.10;99.90
23120;DHT22;11729;50.836;4.330;2023-04-25T09:49:55;13.40;99.90
23120;DHT22;11729;50.836;4.330;2023-04-25T09:52:22;14.10;99.90
23120;DHT22;11729;50.836;4.330;2023-04-25T09:54:50;15.20;99.90
23120;DHT22;11729;50.836;4.330;2023-04-25T09:57:21;16.00;99.90
23120;DHT22;11729;50.836;4.330;2023-04-25T09:59:52;16.80;99.90
23120;DHT22;11729;50.836;4.330;2023-04-25T10:02:24;18.30;94.10
23120;DHT22;11729;50.836;4.330;2023-04-25T10:04:52;19.70;90.40
23120;DHT22;11729;50.836;4.330;2023-04-25T10:07:21;20.50;84.30
23120;DHT22;11729;50.836;4.330;2023-04-25T10:09:49;21.20;78.60
23120;DHT22;11729;50.836;4.330;2023-04-25T10:12:17;21.40;74.50
23120;DHT22;11729;50.836;4.330;2023-04-25T10:14:43;20.50;73.50
23120;DHT22;11729;50.836;4.330;2023-04-25T10:17:10;20.60;70.20
23120;DHT22;11729;50.836;4.330;2023-04-25T10:19:39;20.30;68.50
23120;DHT22;11729;50.836;4.330;2023-04-25T10:22:08;19.80;69.50
23120;DHT22;11729;50.836;4.330;2023-04-25T10:24:37;20.10;72.10
23120;DHT22;11729;50.836;4.330;2023-04-25T10:27:04;20.10;65.80
23120;DHT22;11729;50.836;4.330;2023-04-25T10:29:32;20.40;65.80
23120;DHT22;11729;50.836;4.330;2023-04-25T10:31:57;21.00;64.40
23120;DHT22;11729;50.836;4.330;2023-04-25T10:34:39;22.10;62.50
23120;DHT22;11729;50.836;4.330;2023-04-25T10:37:09;22.30;58.20
23120;DHT22;11729;50.836;4.330;2023-04-25T10:39:34;22.00;57.50
23120;DHT22;11729;50.836;4.330;2023-04-25T10:42:02;21.70;58.60
23120;DHT22;11729;50.836;4.330;2023-04-25T10:44:29;21.10;60.00
23120;DHT22;11729;50.836;4.330;2023-04-25T10:46:56;19.90;56.80
23120;DHT22;11729;50.836;4.330;2023-04-25T10:49:41;18.50;61.00
23120;DHT22;11729;50.836;4.330;2023-04-25T10:55:07;16.70;68.30
23120;DHT22;11729;50.836;4.330;2023-04-25T10:57:39;15.90;75.00
23120;DHT22;11729;50.836;4.330;2023-04-25T11:02:43;14.90;85.60
23120;DHT22;11729;50.836;4.330;2023-04-25T11:05:14;14.40;92.60
23120;DHT22;11729;50.836;4.330;2023-04-25T11:07:50;13.80;99.90
23120;DHT22;11729;50.836;4.330;2023-04-25T11:10:17;13.00;99.90
23120;DHT22;11729;50.836;4.330;2023-04-25T11:12:44;12.70;99.90
23120;DHT22;11729;50.836;4.330;2023-04-25T11:15:10;12.60;99.90
23120;DHT22;11729;50.836;4.330;2023-04-25T11:17:35;12.60;99.90
23120;DHT22;11729;50.836;4.330;2023-04-25T11:20:01;12.80;99.90
23120;DHT22;11729;50.836;4.330;2023-04-25T11:22:33;12.90;99.90
23120;DHT22;11729;50.836;4.330;2023-04-25T11:25:05;12.90;99.90
23120;DHT22;11729;50.836;4.330;2023-04-25T11:27:31;13.20;99.90
23120;DHT22;11729;50.836;4.330;2023-04-25T11:29:56;13.00;99.90
23120;DHT22;11729;50.836;4.330;2023-04-25T11:32:23;12.80;99.90
23120;DHT22;11729;50.836;4.330;2023-04-25T11:34:49;13.10;99.90
23120;DHT22;11729;50.836;4.330;2023-04-25T11:37:15;13.40;99.90
23120;DHT22;11729;50.836;4.330;2023-04-25T11:39:49;13.40;99.90
23120;DHT22;11729;50.836;4.330;2023-04-25T11:42:18;13.60;99.90
23120;DHT22;11729;50.836;4.330;2023-04-25T11:44:43;13.70;99.90
23120;DHT22;11729;50.836;4.330;2023-04-25T11:47:10;13.70;99.90
23120;DHT22;11729;50.836;4.330;2023-04-25T11:49:36;13.70;99.90
23120;DHT22;11729;50.836;4.330;2023-04-25T11:52:03;13.40;99.90
23120;DHT22;11729;50.836;4.330;2023-04-25T11:54:31;13.80;99.90
23120;DHT22;11729;50.836;4.330;2023-04-25T11:56:57;14.60;99.00
23120;DHT22;11729;50.836;4.330;2023-04-25T11:59:24;15.70;97.50
23120;DHT22;11729;50.836;4.330;2023-04-25T12:01:50;16.30;92.50
23120;DHT22;11729;50.836;4.330;2023-04-25T12:04:23;16.70;91.80
23120;DHT22;11729;50.836;4.330;2023-04-25T12:06:51;17.50;88.30
23120;DHT22;11729;50.836;4.330;2023-04-25T12:09:23;17.70;85.00
23120;DHT22;11729;50.836;4.330;2023-04-25T12:11:55;17.90;84.20
23120;DHT22;11729;50.836;4.330;2023-04-25T12:14:24;17.70;84.10
23120;DHT22;11729;50.836;4.330;2023-04-25T12:16:52;17.90;84.10
23120;DHT22;11729;50.836;4.330;2023-04-25T12:19:20;18.10;87.80
23120;DHT22;11729;50.836;4.330;2023-04-25T12:21:47;17.90;82.90
23120;DHT22;11729;50.836;4.330;2023-04-25T12:24:24;18.50;82.80
23120;DHT22;11729;50.836;4.330;2023-04-25T12:27:05;18.90;83.90
23120;DHT22;11729;50.836;4.330;2023-04-25T12:29:32;18.50;81.00
23120;DHT22;11729;50.836;4.330;2023-04-25T12:31:59;17.80;80.80
23120;DHT22;11729;50.836;4.330;2023-04-25T12:34:27;16.80;81.60
23120;DHT22;11729;50.836;4.330;2023-04-25T12:36:54;16.00;81.10
23120;DHT22;11729;50.836;4.330;2023-04-25T12:39:21;15.60;81.90
23120;DHT22;11729;50.836;4.330;2023-04-25T12:41:50;15.60;82.10
23120;DHT22;11729;50.836;4.330;2023-04-25T12:44:17;15.70;83.30
23120;DHT22;11729;50.836;4.330;2023-04-25T12:46:43;16.50;84.60
23120;DHT22;11729;50.836;4.330;2023-04-25T12:49:09;18.00;78.10
23120;DHT22;11729;50.836;4.330;2023-04-25T12:51:35;19.50;74.30
23120;DHT22;11729;50.836;4.330;2023-04-25T12:54:02;20.60;69.50
23120;DHT22;11729;50.836;4.330;2023-04-25T12:56:29;20.90;67.60
23120;DHT22;11729;50.836;4.330;2023-04-25T12:58:55;20.40;63.80
23120;DHT22;11729;50.836;4.330;2023-04-25T13:01:26;20.60;66.10
23120;DHT22;11729;50.836;4.330;2023-04-25T13:03:52;20.60;67.90
23120;DHT22;11729;50.836;4.330;2023-04-25T13:06:20;20.20;64.30
23120;DHT22;11729;50.836;4.330;2023-04-25T13:08:46;19.00;66.70
23120;DHT22;11729;50.836;4.330;2023-04-25T13:11:12;18.00;70.30
23120;DHT22;11729;50.836;4.330;2023-04-25T13:13:40;16.90;72.80
23120;DHT22;11729;50.836;4.330;2023-04-25T13:16:14;16.00;75.70
23120;DHT22;11729;50.836;4.330;2023-04-25T13:18:40;15.80;81.20
23120;DHT22;11729;50.836;4.330;2023-04-25T13:21:06;16.50;78.90
23120;DHT22;11729;50.836;4.330;2023-04-25T13:23:32;16.40;77.80
23120;DHT22;11729;50.836;4.330;2023-04-25T13:25:59;16.20;78.50
23120;DHT22;11729;50.836;4.330;2023-04-25T13:28:26;16.00;80.70
23120;DHT22;11729;50.836;4.330;2023-04-25T13:30:51;15.80;78.50
23120;DHT22;11729;50.836;4.330;2023-04-25T13:33:17;16.30;81.50
23120;DHT22;11729;50.836;4.330;2023-04-25T13:35:44;17.40;74.40
23120;DHT22;11729;50.836;4.330;2023-04-25T13:38:25;18.70;68.50
23120;DHT22;11729;50.836;4.330;2023-04-25T13:40:51;19.50;67.90
23120;DHT22;11729;50.836;4.330;2023-04-25T13:43:22;20.50;62.70
23120;DHT22;11729;50.836;4.330;2023-04-25T13:45:49;20.70;62.00
23120;DHT22;11729;50.836;4.330;2023-04-25T13:48:16;21.50;58.30
23120;DHT22;11729;50.836;4.330;2023-04-25T13:50:41;21.60;57.50
23120;DHT22;11729;50.836;4.330;2023-04-25T13:53:08;20.80;55.90
23120;DHT22;11729;50.836;4.330;2023-04-25T13:55:34;20.40;59.00
23120;DHT22;11729;50.836;4.330;2023-04-25T13:58:05;19.30;63.50
23120;DHT22;11729;50.836;4.330;2023-04-25T14:00:36;17.80;68.80
23120;DHT22;11729;50.836;4.330;2023-04-25T14:03:04;16.50;74.80
23120;DHT22;11729;50.836;4.330;2023-04-25T14:05:32;15.60;76.70
23120;DHT22;11729;50.836;4.330;2023-04-25T14:08:00;15.50;80.30
23120;DHT22;11729;50.836;4.330;2023-04-25T14:10:29;15.80;83.20
23120;DHT22;11729;50.836;4.330;2023-04-25T14:12:55;15.90;80.70
23120;DHT22;11729;50.836;4.330;2023-04-25T14:15:21;15.70;81.40
23120;DHT22;11729;50.836;4.330;2023-04-25T14:17:47;15.00;81.50
23120;DHT22;11729;50.836;4.330;2023-04-25T14:20:13;14.60;82.40
23120;DHT22;11729;50.836;4.330;2023-04-25T14:22:39;14.20;84.00
23120;DHT22;11729;50.836;4.330;2023-04-25T14:25:08;13.80;87.20
23120;DHT22;11729;50.836;4.330;2023-04-25T14:27:35;13.50;88.20
23120;DHT22;11729;50.836;4.330;2023-04-25T14:30:01;13.40;86.30
23120;DHT22;11729;50.836;4.330;2023-04-25T14:32:27;13.40;90.40
23120;DHT22;11729;50.836;4.330;2023-04-25T14:34:53;13.70;89.10
23120;DHT22;11729;50.836;4.330;2023-04-25T14:37:18;13.60;88.10
23120;DHT22;11729;50.836;4.330;2023-04-25T14:39:44;13.70;88.90
23120;DHT22;11729;50.836;4.330;2023-04-25T14:42:10;13.70;90.10
23120;DHT22;11729;50.836;4.330;2023-04-25T14:44:38;13.70;89.30
23120;DHT22;11729;50.836;4.330;2023-04-25T14:47:04;13.80;88.70
23120;DHT22;11729;50.836;4.330;2023-04-25T14:49:31;13.90;88.70
23120;DHT22;11729;50.836;4.330;2023-04-25T14:51:56;13.70;90.20
23120;DHT22;11729;50.836;4.330;2023-04-25T14:54:23;13.90;91.10
23120;DHT22;11729;50.836;4.330;2023-04-25T14:56:49;13.70;91.80
23120;DHT22;11729;50.836;4.330;2023-04-25T14:59:15;13.60;91.60
23120;DHT22;11729;50.836;4.330;2023-04-25T15:01:41;13.30;92.50
23120;DHT22;11729;50.836;4.330;2023-04-25T15:04:06;13.30;93.00
23120;DHT22;11729;50.836;4.330;2023-04-25T15:06:33;13.30;93.00
23120;DHT22;11729;50.836;4.330;2023-04-25T15:08:58;13.50;92.40
23120;DHT22;11729;50.836;4.330;2023-04-25T15:11:24;13.60;91.40
23120;DHT22;11729;50.836;4.330;2023-04-25T15:13:50;13.60;91.80
23120;DHT22;11729;50.836;4.330;2023-04-25T15:16:15;13.50;91.00
23120;DHT22;11729;50.836;4.330;2023-04-25T15:18:41;13.50;91.30
23120;DHT22;11729;50.836;4.330;2023-04-25T15:21:07;13.60;91.60
23120;DHT22;11729;50.836;4.330;2023-04-25T15:23:32;13.60;91.70
23120;DHT22;11729;50.836;4.330;2023-04-25T15:25:58;13.50;92.40
23120;DHT22;11729;50.836;4.330;2023-04-25T15:28:25;13.40;92.00
23120;DHT22;11729;50.836;4.330;2023-04-25T15:30:50;13.30;91.80
23120;DHT22;11729;50.836;4.330;2023-04-25T15:33:16;12.90;92.70
23120;DHT22;11729;50.836;4.330;2023-04-25T15:35:42;12.70;92.90
23120;DHT22;11729;50.836;4.330;2023-04-25T15:38:08;12.70;93.00
23120;DHT22;11729;50.836;4.330;2023-04-25T15:40:35;12.70;92.70